Time;durP1;ratioP1;P1;durP2;ratioP2;P2;SDS_P1;SDS_P2;PMS_P1;PMS_P2;Temp;Humidity;BMP_temperature;BMP_pressure;BME280_temperature;BME280_humidity;BME280_pressure;Samples;Min_cycle;Max_cycle;Signal;HPM_P1;HPM_P2
2023/10/23 00:01:38;;;;;;;3.22;0.47;;;28.90;34.00;;;;;;4956048;29;20617;-69
2023/10/23 00:04:09;;;;;;;5.50;0.52;;;28.50;34.10;;;;;;4952480;28;20027;-69
2023/10/23 00:06:36;;;;;;;4.40;0.55;;;28.50;34.70;;;;;;4953338;29;20030;-69
2023/10/23 00:09:04;;;;;;;2.35;0.88;;;28.60;34.00;;;;;;4954507;29;20027;-69
2023/10/23 00:11:32;;;;;;;4.70;0.50;;;28.50;34.50;;;;;;4953535;28;20376;-69
2023/10/23 00:14:00;;;;;;;3.17;0.52;;;28.50;34.60;;;;;;4953817;29;20038;-69
2023/10/23 00:16:27;;;;;;;6.78;0.80;;;27.60;35.40;;;;;;4954439;29;20042;-69
2023/10/23 00:18:55;;;;;;;2.17;0.40;;;27.90;35.30;;;;;;4937446;29;20425;-69
2023/10/23 00:21:22;;;;;;;8.18;0.80;;;28.00;34.30;;;;;;4953302;29;20023;-69
2023/10/23 00:23:50;;;;;;;10.75;0.98;;;28.60;35.00;;;;;;4955390;29;20035;-69
2023/10/23 00:26:17;;;;;;;3.40;0.50;;;29.40;35.80;;;;;;4941510;28;20034;-69
2023/10/23 00:28:45;;;;;;;2.08;0.68;;;29.70;33.70;;;;;;4941224;28;20031;-69
2023/10/23 00:31:12;;;;;;;2.20;0.63;;;30.10;35.00;;;;;;4936570;29;20495;-70
2023/10/23 00:33:39;;;;;;;1.25;0.50;;;30.30;33.30;;;;;;4953983;28;20047;-69
2023/10/23 00:36:07;;;;;;;1.40;0.40;;;29.90;32.20;;;;;;4952412;29;20154;-70
2023/10/23 00:38:34;;;;;;;1.95;0.63;;;29.00;31.90;;;;;;4954302;29;20027;-70
2023/10/23 00:41:01;;;;;;;6.30;0.75;;;28.90;33.90;;;;;;4953563;29;20081;-70
2023/10/23 00:43:29;;;;;;;2.00;0.60;;;29.10;32.70;;;;;;4949322;28;20086;-71
2023/10/23 00:46:07;;;;;;;2.47;0.65;;;28.70;32.60;;;;;;4956748;28;20023;-69
2023/10/23 00:48:34;;;;;;;2.72;0.55;;;28.80;33.20;;;;;;4954459;28;20027;-70
2023/10/23 00:51:03;;;;;;;2.70;0.60;;;28.90;33.60;;;;;;4953716;29;20147;-70
2023/10/23 00:53:37;;;;;;;3.72;0.60;;;29.20;33.40;;;;;;4953185;29;20511;-70
2023/10/23 00:56:06;;;;;;;1.77;0.63;;;29.20;34.30;;;;;;4951704;29;20065;-70
2023/10/23 00:58:37;;;;;;;2.25;0.68;;;30.00;35.60;;;;;;4946014;29;20106;-70
2023/10/23 01:01:05;;;;;;;2.10;0.50;;;30.30;33.50;;;;;;4947251;28;20487;-70
2023/10/23 01:03:32;;;;;;;2.50;0.38;;;29.90;33.00;;;;;;4947364;28;20027;-70
2023/10/23 01:06:00;;;;;;;3.53;0.65;;;30.00;34.00;;;;;;4946304;29;20035;-70
2023/10/23 01:08:27;;;;;;;4.22;0.70;;;30.20;33.20;;;;;;4946104;28;20050;-70
2023/10/23 01:10:55;;;;;;;3.78;0.70;;;30.40;35.40;;;;;;4946103;28;20074;-69
2023/10/23 01:13:24;;;;;;;3.97;0.50;;;31.20;35.20;;;;;;4945486;28;20075;-69
2023/10/23 01:15:51;;;;;;;3.40;1.00;;;31.60;31.60;;;;;;4941439;29;20154;-68
2023/10/23 01:18:19;;;;;;;5.70;0.70;;;31.10;31.80;;;;;;4952985;29;20031;-68
2023/10/23 01:20:47;;;;;;;2.72;0.60;;;31.00;32.00;;;;;;4967671;28;20061;-68
2023/10/23 01:23:14;;;;;;;2.25;0.55;;;31.20;34.50;;;;;;4972969;28;20030;-68
2023/10/23 01:25:42;;;;;;;4.32;0.70;;;31.50;33.10;;;;;;4963825;28;20059;-68
2023/10/23 01:28:09;;;;;;;2.58;0.73;;;30.70;31.70;;;;;;4935652;29;20032;-68
2023/10/23 01:30:38;;;;;;;4.88;0.47;;;30.50;31.60;;;;;;4934287;29;20099;-68
2023/10/23 01:33:05;;;;;;;1.80;0.52;;;30.40;31.70;;;;;;4934420;28;20051;-67
2023/10/23 01:35:32;;;;;;;2.83;0.50;;;30.40;32.60;;;;;;4935389;29;20056;-68
2023/10/23 01:38:00;;;;;;;2.80;0.50;;;30.00;31.50;;;;;;4936937;28;20036;-68
2023/10/23 01:40:27;;;;;;;2.30;0.52;;;29.90;31.80;;;;;;4933867;29;20031;-68
2023/10/23 01:42:54;;;;;;;3.78;0.70;;;30.20;32.70;;;;;;4934183;29;20377;-69
2023/10/23 01:45:22;;;;;;;2.50;0.40;;;31.20;33.60;;;;;;4939572;29;20031;-69
2023/10/23 01:47:49;;;;;;;2.13;0.73;;;32.10;32.30;;;;;;4942047;29;20055;-70
2023/10/23 01:50:17;;;;;;;6.78;1.00;;;32.70;32.10;;;;;;4943258;29;20043;-69
2023/10/23 01:52:44;;;;;;;4.75;0.63;;;32.50;30.60;;;;;;4944966;29;20042;-69
2023/10/23 01:55:12;;;;;;;6.90;0.63;;;32.60;31.70;;;;;;4944291;28;20086;-69
2023/10/23 01:57:39;;;;;;;3.63;1.05;;;32.80;32.10;;;;;;4944447;29;20068;-69
2023/10/23 02:00:09;;;;;;;3.20;0.65;;;33.00;31.30;;;;;;4951630;28;20071;-69
2023/10/23 02:02:37;;;;;;;4.13;0.80;;;32.80;30.30;;;;;;4956791;29;20038;-68
2023/10/23 02:05:04;;;;;;;3.28;0.50;;;32.30;31.40;;;;;;4955183;29;20477;-69
2023/10/23 02:07:32;;;;;;;5.63;0.50;;;32.10;30.70;;;;;;4937945;29;20030;-68
2023/10/23 02:10:00;;;;;;;5.10;0.63;;;32.40;30.70;;;;;;4939273;28;20034;-70
2023/10/23 02:12:27;;;;;;;2.50;0.70;;;32.00;30.70;;;;;;4974095;28;20030;-70
2023/10/23 02:14:56;;;;;;;4.72;0.85;;;31.60;30.10;;;;;;4976490;28;20066;-70
2023/10/23 02:17:23;;;;;;;3.33;0.80;;;31.90;31.20;;;;;;4949564;28;20027;-70
2023/10/23 02:19:50;;;;;;;3.28;1.30;;;31.90;30.50;;;;;;4951436;29;20061;-71
2023/10/23 02:22:21;;;;;;;3.03;1.25;;;32.40;30.40;;;;;;4940387;29;20042;-70
2023/10/23 02:24:48;;;;;;;2.85;0.80;;;32.60;30.40;;;;;;4939782;29;20024;-70
2023/10/23 02:27:16;;;;;;;1.40;0.60;;;32.60;29.90;;;;;;4952291;28;20055;-70
2023/10/23 02:29:43;;;;;;;3.67;0.75;;;32.30;30.80;;;;;;4954687;29;20066;-69
2023/10/23 02:32:10;;;;;;;4.45;1.25;;;32.80;30.90;;;;;;4938673;29;20043;-69
2023/10/23 02:34:38;;;;;;;2.88;1.17;;;33.00;29.90;;;;;;4956620;29;20058;-69
2023/10/23 02:37:05;;;;;;;4.35;1.80;;;32.60;29.90;;;;;;4941989;28;20438;-70
2023/10/23 02:39:33;;;;;;;3.13;1.70;;;32.40;30.00;;;;;;4955472;29;20066;-70
2023/10/23 02:42:01;;;;;;;4.13;1.92;;;31.80;30.40;;;;;;4943052;29;20024;-70
2023/10/23 02:44:28;;;;;;;4.47;2.13;;;31.80;30.80;;;;;;4947769;28;20026;-69
2023/10/23 02:46:57;;;;;;;4.60;2.00;;;31.90;30.30;;;;;;4945749;29;20042;-70
2023/10/23 02:49:25;;;;;;;5.85;2.90;;;31.60;30.10;;;;;;4950366;29;20091;-70
2023/10/23 02:51:52;;;;;;;5.78;2.67;;;31.50;30.60;;;;;;4950583;28;20354;-70
2023/10/23 02:54:20;;;;;;;4.75;2.28;;;32.00;29.90;;;;;;4945785;28;20480;-69
2023/10/23 02:56:47;;;;;;;5.22;1.77;;;32.30;31.20;;;;;;4950235;29;20118;-70
2023/10/23 02:59:14;;;;;;;4.95;2.00;;;32.30;31.00;;;;;;4942777;29;20827;-70
2023/10/23 03:01:42;;;;;;;5.13;2.30;;;32.90;30.80;;;;;;4947678;28;20046;-70
2023/10/23 03:04:09;;;;;;;6.63;2.22;;;33.20;31.00;;;;;;4947552;28;20089;-71
2023/10/23 03:06:36;;;;;;;5.97;1.98;;;33.70;31.20;;;;;;4953732;29;20098;-70
2023/10/23 03:09:04;;;;;;;3.92;2.63;;;34.00;30.00;;;;;;4955115;29;20085;-70
2023/10/23 03:11:32;;;;;;;5.35;2.42;;;33.80;29.80;;;;;;4947428;28;20738;-69
2023/10/23 03:13:59;;;;;;;7.47;5.38;;;33.90;30.70;;;;;;4946625;29;20094;-70
2023/10/23 03:16:27;;;;;;;14.00;6.80;;;34.20;29.60;;;;;;4946321;29;20058;-69
2023/10/23 03:18:54;;;;;;;6.78;5.15;;;34.20;29.90;;;;;;4948156;28;20027;-70
2023/10/23 03:21:22;;;;;;;12.48;8.85;;;34.10;29.40;;;;;;4943217;29;20207;-69
2023/10/23 03:23:49;;;;;;;11.95;7.13;;;33.50;28.60;;;;;;4953427;29;20027;-70
2023/10/23 03:26:17;;;;;;;11.25;7.13;;;32.70;29.30;;;;;;4952936;28;20110;-70
2023/10/23 03:28:45;;;;;;;16.05;13.63;;;32.60;29.70;;;;;;4953486;29;20019;-70
2023/10/23 03:31:12;;;;;;;13.10;9.77;;;32.40;29.50;;;;;;4934416;29;20031;-70
2023/10/23 03:33:41;;;;;;;15.55;9.52;;;32.40;29.90;;;;;;4945903;28;20043;-69
2023/10/23 03:36:08;;;;;;;14.52;10.32;;;32.50;30.00;;;;;;4944503;28;20790;-70
2023/10/23 03:38:36;;;;;;;4.75;3.55;;;32.80;29.80;;;;;;4939790;28;20028;-69
2023/10/23 03:41:03;;;;;;;6.38;2.50;;;33.00;30.30;;;;;;4940940;28;20586;-69
2023/10/23 03:43:30;;;;;;;3.47;2.17;;;33.30;29.40;;;;;;4946804;28;20456;-68
2023/10/23 03:46:02;;;;;;;5.47;3.50;;;32.90;29.70;;;;;;4945283;29;20031;-69
2023/10/23 03:48:30;;;;;;;5.40;3.53;;;32.80;30.00;;;;;;4947220;29;20040;-69
2023/10/23 03:51:01;;;;;;;8.07;5.30;;;32.60;29.30;;;;;;4947953;28;20090;-69
2023/10/23 03:53:28;;;;;;;7.60;4.57;;;32.40;29.50;;;;;;4945154;28;20040;-70
2023/10/23 03:55:56;;;;;;;8.15;4.00;;;32.60;30.10;;;;;;4946850;29;20082;-69
2023/10/23 03:58:23;;;;;;;6.68;2.88;;;33.10;31.40;;;;;;4947125;29;20027;-69
2023/10/23 04:00:54;;;;;;;5.35;2.63;;;33.70;30.20;;;;;;4944732;28;20032;-69
2023/10/23 04:03:21;;;;;;;5.78;2.10;;;33.70;29.60;;;;;;4940438;29;20070;-69
2023/10/23 04:05:49;;;;;;;8.35;3.80;;;33.80;29.60;;;;;;4939458;29;20035;-69
2023/10/23 04:08:16;;;;;;;6.43;4.07;;;33.70;29.00;;;;;;4950113;28;20023;-69
2023/10/23 04:10:50;;;;;;;10.35;3.20;;;33.60;29.80;;;;;;4951677;28;20023;-69
2023/10/23 04:13:17;;;;;;;5.80;3.22;;;33.70;30.70;;;;;;4948503;29;20043;-70
2023/10/23 04:15:58;;;;;;;6.93;4.20;;;34.00;30.30;;;;;;4949119;28;20031;-70
2023/10/23 04:18:28;;;;;;;8.05;4.20;;;34.00;30.80;;;;;;4950401;29;20042;-70
2023/10/23 04:21:09;;;;;;;6.25;3.42;;;34.10;30.70;;;;;;4948972;28;20063;-69
2023/10/23 04:23:38;;;;;;;2.83;2.00;;;34.30;30.60;;;;;;4941643;28;20054;-72
2023/10/23 04:26:07;;;;;;;2.50;1.45;;;34.20;30.70;;;;;;4938027;28;20042;-69
2023/10/23 04:28:36;;;;;;;3.70;1.50;;;34.30;30.10;;;;;;4945147;29;20023;-69
2023/10/23 04:31:04;;;;;;;4.78;1.05;;;34.30;29.70;;;;;;4949609;29;20389;-69
2023/10/23 04:33:31;;;;;;;4.70;1.30;;;33.90;29.10;;;;;;4922953;29;20079;-69
2023/10/23 04:35:59;;;;;;;2.30;0.70;;;33.90;30.00;;;;;;4946613;29;20473;-68
2023/10/23 04:38:27;;;;;;;5.75;1.23;;;33.70;28.90;;;;;;4943380;28;20043;-70
2023/10/23 04:40:54;;;;;;;2.95;0.82;;;33.10;29.30;;;;;;4943538;28;20388;-70
2023/10/23 04:43:22;;;;;;;3.42;0.77;;;33.00;29.40;;;;;;4951172;28;20019;-70
2023/10/23 04:45:52;;;;;;;1.92;1.05;;;32.50;29.40;;;;;;4952393;28;20027;-70
2023/10/23 04:48:20;;;;;;;2.83;0.98;;;32.80;30.90;;;;;;4950281;28;20027;-69
2023/10/23 04:50:47;;;;;;;6.85;0.80;;;33.30;30.50;;;;;;4948422;28;20027;-69
2023/10/23 04:53:14;;;;;;;2.90;0.90;;;33.50;30.00;;;;;;4944670;28;20046;-69
2023/10/23 04:55:42;;;;;;;7.00;1.27;;;33.70;30.00;;;;;;4944224;28;20039;-69
2023/10/23 04:58:09;;;;;;;4.30;1.10;;;33.80;30.80;;;;;;4948488;28;20068;-69
2023/10/23 05:00:38;;;;;;;9.40;1.13;;;33.80;30.50;;;;;;4947325;28;20039;-70
2023/10/23 05:03:07;;;;;;;3.38;1.20;;;33.70;29.00;;;;;;4948586;29;20074;-70
2023/10/23 05:05:35;;;;;;;9.77;0.85;;;33.40;29.10;;;;;;4950083;29;20027;-69
2023/10/23 05:08:04;;;;;;;11.20;1.10;;;33.70;30.50;;;;;;4947610;29;20054;-69
2023/10/23 05:10:31;;;;;;;3.50;0.60;;;33.80;29.90;;;;;;4946546;28;20022;-70
2023/10/23 05:12:59;;;;;;;5.03;0.70;;;33.80;29.40;;;;;;4947668;28;20082;-70
2023/10/23 05:15:28;;;;;;;3.60;0.80;;;33.80;29.90;;;;;;4942313;28;20033;-70
2023/10/23 05:17:55;;;;;;;4.38;0.88;;;33.80;29.60;;;;;;4942760;28;20031;-71
2023/10/23 05:20:23;;;;;;;3.78;0.95;;;33.60;29.50;;;;;;4943918;28;20023;-71
2023/10/23 05:22:50;;;;;;;3.90;0.80;;;33.10;28.90;;;;;;4944442;29;20027;-69
2023/10/23 05:25:18;;;;;;;4.47;0.60;;;32.70;29.10;;;;;;4944747;28;20043;-69
2023/10/23 05:27:45;;;;;;;2.83;0.52;;;32.40;29.00;;;;;;4940593;28;20413;-70
2023/10/23 05:30:12;;;;;;;3.65;0.52;;;32.30;29.40;;;;;;4944780;29;20031;-70
2023/10/23 05:32:40;;;;;;;1.45;0.57;;;32.30;29.20;;;;;;4948769;29;20462;-70
2023/10/23 05:35:08;;;;;;;2.78;1.00;;;32.50;29.30;;;;;;4947336;28;20508;-68
2023/10/23 05:37:36;;;;;;;13.00;0.70;;;32.50;29.30;;;;;;4947372;28;20106;-69
2023/10/23 05:40:04;;;;;;;3.78;0.77;;;32.50;29.60;;;;;;4943812;28;20047;-70
2023/10/23 05:42:32;;;;;;;3.50;0.98;;;32.40;29.10;;;;;;4928969;28;20493;-70
2023/10/23 05:45:02;;;;;;;5.32;0.82;;;32.30;29.50;;;;;;4949471;28;20027;-69
2023/10/23 05:47:30;;;;;;;3.67;0.57;;;32.60;30.00;;;;;;4941081;28;20645;-70
2023/10/23 05:49:57;;;;;;;3.40;0.60;;;32.70;30.20;;;;;;4944383;28;20473;-69
2023/10/23 05:52:24;;;;;;;1.85;0.60;;;32.70;29.70;;;;;;4954464;28;20050;-70
2023/10/23 05:54:52;;;;;;;4.05;0.70;;;32.70;30.00;;;;;;4952202;28;20427;-69
2023/10/23 05:57:19;;;;;;;2.80;0.95;;;32.60;29.10;;;;;;4944862;28;20039;-69
2023/10/23 05:59:46;;;;;;;8.52;0.90;;;32.20;29.30;;;;;;4947728;28;20063;-70
2023/10/23 06:02:14;;;;;;;5.68;0.70;;;32.20;29.20;;;;;;4942908;28;20413;-70
2023/10/23 06:04:44;;;;;;;3.13;0.50;;;32.20;29.10;;;;;;4946189;28;20027;-70
2023/10/23 06:07:12;;;;;;;2.70;0.77;;;32.00;29.00;;;;;;4945165;28;20043;-70
2023/10/23 06:09:39;;;;;;;2.65;0.82;;;31.90;29.40;;;;;;4946466;28;20054;-70
2023/10/23 06:12:09;;;;;;;3.05;0.70;;;31.80;29.10;;;;;;4948228;28;20138;-70
2023/10/23 06:14:37;;;;;;;3.83;0.82;;;31.80;29.60;;;;;;4952362;28;20540;-70
2023/10/23 06:17:04;;;;;;;2.50;0.75;;;31.80;30.00;;;;;;4949197;28;20122;-72
2023/10/23 06:19:31;;;;;;;4.93;0.85;;;31.70;29.40;;;;;;4950595;28;20401;-71
2023/10/23 06:21:59;;;;;;;2.33;0.73;;;31.70;29.50;;;;;;4942334;28;20031;-70
2023/10/23 06:24:27;;;;;;;2.60;0.93;;;31.60;29.40;;;;;;4947051;28;20618;-70
2023/10/23 06:26:55;;;;;;;3.95;0.90;;;31.70;29.90;;;;;;4946834;28;20572;-70
2023/10/23 06:29:23;;;;;;;4.20;0.80;;;31.70;30.10;;;;;;4948333;28;20028;-70
2023/10/23 06:31:51;;;;;;;3.92;1.00;;;31.80;30.00;;;;;;4941221;28;20404;-69
2023/10/23 06:34:18;;;;;;;1.95;0.88;;;31.90;29.80;;;;;;4951123;28;20067;-69
2023/10/23 06:36:49;;;;;;;2.97;1.10;;;32.00;30.40;;;;;;4954757;28;20031;-71
2023/10/23 06:39:16;;;;;;;11.55;1.70;;;32.10;31.10;;;;;;4948149;28;20473;-68
2023/10/23 06:41:43;;;;;;;4.18;1.52;;;32.00;30.20;;;;;;4946291;28;20027;-69
2023/10/23 06:44:11;;;;;;;5.32;1.13;;;32.20;30.30;;;;;;4949962;28;20074;-71
2023/10/23 06:46:40;;;;;;;7.15;1.58;;;32.00;35.10;;;;;;4935209;28;20070;-70
2023/10/23 06:49:08;;;;;;;10.15;1.70;;;31.30;37.60;;;;;;4955164;28;20122;-72
2023/10/23 06:51:36;;;;;;;5.38;1.88;;;30.70;38.10;;;;;;4954351;28;20130;-70
2023/10/23 06:54:04;;;;;;;12.00;2.78;;;30.50;38.50;;;;;;4945416;28;20137;-70
2023/10/23 06:56:31;;;;;;;34.10;6.68;;;30.20;38.60;;;;;;4948850;28;20031;-71
2023/10/23 06:58:58;;;;;;;24.10;5.28;;;30.00;38.40;;;;;;4938629;28;20034;-69
2023/10/23 07:01:26;;;;;;;24.45;3.65;;;29.50;38.90;;;;;;4953213;28;20053;-69
2023/10/23 07:03:53;;;;;;;17.30;3.10;;;29.00;39.20;;;;;;4951935;28;20023;-69
2023/10/23 07:06:23;;;;;;;11.63;2.47;;;28.70;39.80;;;;;;4950918;28;20043;-71
2023/10/23 07:08:51;;;;;;;8.05;1.90;;;28.50;40.00;;;;;;4931395;28;20037;-70
2023/10/23 07:11:18;;;;;;;4.18;1.02;;;28.40;40.10;;;;;;4947377;28;20473;-70
2023/10/23 07:13:46;;;;;;;7.65;1.38;;;28.10;40.10;;;;;;4942551;28;20070;-70
2023/10/23 07:16:13;;;;;;;10.50;1.48;;;28.00;40.40;;;;;;4947657;28;20032;-71
2023/10/23 07:18:41;;;;;;;8.02;1.70;;;27.90;40.40;;;;;;4945852;28;20063;-69
2023/10/23 07:21:08;;;;;;;6.20;1.00;;;27.70;40.70;;;;;;4948343;28;20031;-69
2023/10/23 07:23:36;;;;;;;5.15;1.15;;;27.50;40.80;;;;;;4948470;28;20035;-67
2023/10/23 07:26:10;;;;;;;4.68;1.23;;;27.20;41.10;;;;;;4951396;28;20031;-69
2023/10/23 07:28:41;;;;;;;7.22;1.05;;;27.10;41.30;;;;;;4953827;28;20038;-67
2023/10/23 07:31:10;;;;;;;3.72;1.08;;;27.00;41.30;;;;;;4951044;28;20031;-69
2023/10/23 07:33:38;;;;;;;4.72;1.25;;;26.90;41.40;;;;;;4954787;28;20063;-69
2023/10/23 07:36:08;;;;;;;5.65;1.20;;;26.80;41.50;;;;;;4955058;28;20082;-65
2023/10/23 07:38:38;;;;;;;7.10;0.98;;;26.60;41.80;;;;;;4951007;28;20035;-69
2023/10/23 07:41:05;;;;;;;9.80;1.15;;;26.40;42.20;;;;;;4949869;28;20617;-69
2023/10/23 07:43:33;;;;;;;4.60;1.27;;;26.30;42.10;;;;;;4952052;28;20448;-66
2023/10/23 07:46:05;;;;;;;3.65;0.93;;;26.20;42.30;;;;;;4951845;28;20038;-67
2023/10/23 07:48:32;;;;;;;4.78;1.05;;;26.00;42.70;;;;;;4948417;28;20031;-67
2023/10/23 07:51:03;;;;;;;4.43;0.93;;;25.80;43.40;;;;;;4949488;28;20118;-67
2023/10/23 07:53:35;;;;;;;2.40;0.60;;;25.50;44.00;;;;;;4952915;28;20039;-68
2023/10/23 07:56:06;;;;;;;5.03;1.00;;;25.20;44.60;;;;;;4952497;28;20036;-68
2023/10/23 07:58:34;;;;;;;6.35;0.90;;;25.30;45.00;;;;;;4953061;28;20031;-67
2023/10/23 08:01:12;;;;;;;9.18;0.85;;;25.10;45.40;;;;;;4952136;28;20039;-67
2023/10/23 08:03:40;;;;;;;4.50;0.90;;;24.90;45.60;;;;;;4953644;28;20027;-68
2023/10/23 08:06:10;;;;;;;5.10;0.90;;;24.90;45.80;;;;;;4951057;28;20082;-67
2023/10/23 08:08:39;;;;;;;3.65;0.75;;;24.90;45.80;;;;;;4954018;28;20038;-67
2023/10/23 08:11:08;;;;;;;2.85;0.93;;;24.90;45.70;;;;;;4952739;28;20027;-68
2023/10/23 08:13:37;;;;;;;3.70;0.80;;;24.90;46.00;;;;;;4955668;28;20094;-67
2023/10/23 08:16:05;;;;;;;6.95;0.95;;;24.80;46.30;;;;;;4936391;28;20130;-69
2023/10/23 08:18:36;;;;;;;4.20;0.88;;;24.70;46.60;;;;;;4952422;28;20032;-66
2023/10/23 08:21:14;;;;;;;5.53;0.93;;;24.50;46.90;;;;;;4949643;28;20105;-67
2023/10/23 08:23:43;;;;;;;7.60;0.77;;;24.50;47.20;;;;;;4954113;28;20492;-67
2023/10/23 08:26:11;;;;;;;5.63;0.90;;;24.40;47.30;;;;;;4951269;28;20560;-68
2023/10/23 08:28:39;;;;;;;3.53;1.10;;;24.50;47.40;;;;;;4949807;28;20023;-67
2023/10/23 08:31:06;;;;;;;9.20;1.23;;;24.50;47.70;;;;;;4952409;28;20042;-67
2023/10/23 08:33:34;;;;;;;4.97;1.08;;;24.40;48.00;;;;;;4934141;28;20063;-67
2023/10/23 08:36:01;;;;;;;4.78;1.05;;;24.30;48.40;;;;;;4955182;28;20563;-67
2023/10/23 08:38:28;;;;;;;5.68;1.00;;;24.30;48.60;;;;;;4950146;28;20102;-67
2023/10/23 08:40:56;;;;;;;4.47;0.88;;;24.20;48.80;;;;;;4952042;28;20337;-67
2023/10/23 08:43:24;;;;;;;4.55;1.40;;;24.10;49.00;;;;;;4952406;28;20023;-66
2023/10/23 08:45:55;;;;;;;5.00;0.80;;;24.10;49.20;;;;;;4953130;28;20042;-67
2023/10/23 08:48:23;;;;;;;2.00;0.73;;;24.00;49.50;;;;;;4946195;28;20054;-67
2023/10/23 08:50:51;;;;;;;5.28;0.93;;;23.90;49.80;;;;;;4948059;28;20019;-67
2023/10/23 08:53:22;;;;;;;4.50;1.20;;;23.90;50.00;;;;;;4952332;28;20404;-67
2023/10/23 08:55:51;;;;;;;3.63;1.27;;;23.90;50.00;;;;;;4947387;28;20078;-67
2023/10/23 08:58:20;;;;;;;4.28;1.02;;;23.90;50.20;;;;;;4949032;28;20031;-67
2023/10/23 09:00:47;;;;;;;4.78;1.30;;;23.80;50.30;;;;;;4952148;28;20078;-67
2023/10/23 09:03:15;;;;;;;4.32;1.30;;;23.80;50.30;;;;;;4948910;28;20476;-67
2023/10/23 09:05:43;;;;;;;7.13;1.40;;;23.80;50.40;;;;;;4945665;28;20035;-67
2023/10/23 09:08:10;;;;;;;8.73;1.23;;;23.90;50.40;;;;;;4949572;28;20168;-67
2023/10/23 09:11:03;;;;;;;4.35;1.23;;;23.90;50.60;;;;;;4949823;28;20050;-67
2023/10/23 09:13:41;;;;;;;9.35;1.48;;;23.80;51.10;;;;;;4948722;28;20118;-67
2023/10/23 09:16:10;;;;;;;5.03;1.17;;;23.60;51.70;;;;;;4951476;28;20034;-67
2023/10/23 09:18:51;;;;;;;8.13;2.30;;;23.50;52.00;;;;;;4951377;28;20476;-68
2023/10/23 09:21:19;;;;;;;9.93;2.83;;;23.40;52.40;;;;;;4949553;28;20050;-67
2023/10/23 09:23:54;;;;;;;8.68;2.78;;;23.20;53.00;;;;;;4951520;28;20046;-68
2023/10/23 09:26:23;;;;;;;7.38;1.65;;;22.80;53.90;;;;;;4935552;29;20401;-67
2023/10/23 09:28:52;;;;;;;5.70;1.88;;;22.60;54.70;;;;;;4952525;28;20519;-67
2023/10/23 09:31:21;;;;;;;7.43;1.60;;;22.40;55.50;;;;;;4955443;28;20389;-67
2023/10/23 09:33:50;;;;;;;5.88;1.35;;;22.30;56.10;;;;;;4954836;28;20077;-68
2023/10/23 09:36:19;;;;;;;5.50;0.93;;;22.30;56.30;;;;;;4950120;28;20057;-67
2023/10/23 09:39:00;;;;;;;7.18;1.60;;;22.10;57.00;;;;;;4948661;28;20027;-67
2023/10/23 09:41:30;;;;;;;5.13;1.25;;;21.90;57.60;;;;;;4950231;28;20042;-68
2023/10/23 09:44:00;;;;;;;4.53;1.10;;;21.80;57.80;;;;;;4952556;28;20023;-68
2023/10/23 09:46:29;;;;;;;1.83;0.70;;;21.80;58.20;;;;;;4948383;28;20031;-68
2023/10/23 09:49:00;;;;;;;8.10;1.17;;;21.70;58.40;;;;;;4946072;28;20035;-68
2023/10/23 09:51:41;;;;;;;5.00;1.23;;;21.70;58.60;;;;;;4954497;28;20166;-67
2023/10/23 09:54:16;;;;;;;6.38;1.25;;;21.60;59.00;;;;;;4952618;28;20098;-67
2023/10/23 09:56:52;;;;;;;7.15;1.42;;;21.60;59.20;;;;;;4948945;28;20468;-67
2023/10/23 09:59:29;;;;;;;5.28;1.10;;;21.50;59.60;;;;;;4944306;28;20041;-67
2023/10/23 10:02:00;;;;;;;7.22;0.80;;;21.50;59.90;;;;;;4947900;28;20035;-67
2023/10/23 10:04:33;;;;;;;4.00;0.98;;;21.50;60.00;;;;;;4946154;28;20035;-67
2023/10/23 10:07:15;;;;;;;4.63;1.00;;;21.40;60.00;;;;;;4950944;28;20043;-67
2023/10/23 10:09:43;;;;;;;7.45;1.42;;;21.30;60.00;;;;;;4946700;28;20027;-67
2023/10/23 10:12:11;;;;;;;4.30;1.40;;;21.20;60.40;;;;;;4950424;28;20567;-67
2023/10/23 10:14:39;;;;;;;11.80;1.27;;;21.30;60.70;;;;;;4951222;28;20133;-67
2023/10/23 10:17:10;;;;;;;4.50;0.88;;;21.20;60.70;;;;;;4937657;28;20400;-67
2023/10/23 10:19:40;;;;;;;5.28;0.90;;;21.20;60.50;;;;;;4949310;28;20031;-69
2023/10/23 10:22:29;;;;;;;5.25;1.30;;;21.10;60.60;;;;;;4952439;28;20465;-67
2023/10/23 10:24:57;;;;;;;6.63;1.13;;;21.00;60.60;;;;;;4955253;28;20031;-66
2023/10/23 10:27:25;;;;;;;4.45;1.05;;;20.90;61.00;;;;;;4952174;28;20039;-67
2023/10/23 10:29:53;;;;;;;3.55;0.85;;;20.80;61.50;;;;;;4950145;28;20106;-68
2023/10/23 10:32:24;;;;;;;7.35;1.13;;;20.90;61.70;;;;;;4955087;28;20070;-67
2023/10/23 10:34:56;;;;;;;1.73;0.65;;;20.80;62.30;;;;;;4951980;28;20046;-68
2023/10/23 10:37:28;;;;;;;3.45;0.70;;;20.70;63.00;;;;;;4953152;28;20039;-66
2023/10/23 10:39:58;;;;;;;6.93;1.00;;;20.80;63.20;;;;;;4950915;28;20059;-68
2023/10/23 10:42:30;;;;;;;4.07;0.73;;;20.90;63.50;;;;;;4956293;28;20361;-67
2023/10/23 10:45:13;;;;;;;5.68;1.00;;;20.70;63.70;;;;;;4952664;28;20063;-67
2023/10/23 10:47:54;;;;;;;3.83;0.70;;;20.60;64.30;;;;;;4953453;28;20535;-67
2023/10/23 10:50:34;;;;;;;3.15;1.00;;;20.60;65.00;;;;;;4953822;28;20110;-67
2023/10/23 10:53:03;;;;;;;2.22;0.90;;;20.60;65.60;;;;;;4957330;28;20038;-67
2023/10/23 10:55:31;;;;;;;6.75;1.15;;;20.60;66.20;;;;;;4952115;28;20031;-67
2023/10/23 10:57:59;;;;;;;6.93;0.98;;;20.30;67.20;;;;;;4955675;28;20062;-67
2023/10/23 11:00:32;;;;;;;5.32;0.98;;;20.30;67.90;;;;;;4954643;28;20041;-68
2023/10/23 11:02:59;;;;;;;5.32;1.20;;;20.50;67.90;;;;;;4952041;28;20045;-67
2023/10/23 11:05:27;;;;;;;4.18;1.02;;;20.40;68.00;;;;;;4950450;28;20436;-67
2023/10/23 11:07:54;;;;;;;8.32;0.73;;;20.20;68.40;;;;;;4951183;28;20075;-67
2023/10/23 11:10:22;;;;;;;4.25;0.85;;;20.30;69.10;;;;;;4945675;28;20563;-68
2023/10/23 11:12:53;;;;;;;6.53;0.85;;;20.30;69.00;;;;;;4947911;28;20156;-67
2023/10/23 11:15:20;;;;;;;5.65;1.13;;;20.60;68.10;;;;;;4953540;28;20070;-67
2023/10/23 11:17:47;;;;;;;4.90;1.25;;;20.80;67.30;;;;;;4950315;28;20035;-67
2023/10/23 11:20:15;;;;;;;4.88;1.20;;;20.60;67.70;;;;;;4949324;28;20038;-67
2023/10/23 11:22:49;;;;;;;6.35;1.00;;;20.30;68.70;;;;;;4948591;28;20119;-67
2023/10/23 11:25:17;;;;;;;10.95;1.23;;;20.10;69.60;;;;;;4950015;28;20054;-67
2023/10/23 11:27:49;;;;;;;6.40;0.82;;;19.90;70.40;;;;;;4950557;28;20034;-67
2023/10/23 11:30:17;;;;;;;3.97;1.00;;;20.00;70.50;;;;;;4953520;28;20046;-66
2023/10/23 11:32:45;;;;;;;5.53;1.35;;;19.90;70.80;;;;;;4949371;28;20058;-67
2023/10/23 11:35:12;;;;;;;7.25;1.35;;;19.80;71.30;;;;;;4949946;28;20481;-67
2023/10/23 11:37:42;;;;;;;4.90;1.40;;;19.60;71.80;;;;;;4948179;28;20059;-67
2023/10/23 11:40:11;;;;;;;3.60;1.20;;;19.50;72.70;;;;;;4948655;28;20040;-67
2023/10/23 11:42:50;;;;;;;6.10;1.00;;;19.50;73.00;;;;;;4948668;28;20471;-67
2023/10/23 11:45:17;;;;;;;8.98;1.00;;;19.50;73.20;;;;;;4945802;28;22281;-67
2023/10/23 11:47:46;;;;;;;5.20;1.20;;;19.50;73.20;;;;;;4951910;28;20127;-66
2023/10/23 11:50:14;;;;;;;8.52;1.40;;;19.50;73.60;;;;;;4952581;28;20110;-67
2023/10/23 11:52:46;;;;;;;6.93;1.30;;;19.30;74.40;;;;;;4954192;28;20393;-67
2023/10/23 11:55:18;;;;;;;6.65;1.52;;;19.30;74.90;;;;;;4953200;28;20044;-66
2023/10/23 11:57:50;;;;;;;6.55;1.75;;;19.20;75.20;;;;;;4952642;28;20035;-66
2023/10/23 12:00:21;;;;;;;6.95;1.85;;;19.20;75.50;;;;;;4951530;28;20048;-67
2023/10/23 12:02:49;;;;;;;7.20;1.50;;;19.10;75.90;;;;;;4936793;28;20039;-67
2023/10/23 12:05:19;;;;;;;6.20;1.80;;;19.10;75.90;;;;;;4954044;28;20463;-66
2023/10/23 12:07:49;;;;;;;7.80;1.60;;;19.20;76.20;;;;;;4951301;28;20034;-67
2023/10/23 12:10:17;;;;;;;6.93;1.83;;;19.20;76.30;;;;;;4949453;28;20025;-67
2023/10/23 12:12:47;;;;;;;7.93;1.85;;;19.10;76.20;;;;;;4951318;28;20098;-67
2023/10/23 12:15:16;;;;;;;8.32;1.80;;;19.10;76.70;;;;;;4954772;28;20024;-65
2023/10/23 12:17:44;;;;;;;6.55;1.50;;;19.00;77.20;;;;;;4953364;28;20114;-67
2023/10/23 12:20:21;;;;;;;4.75;1.50;;;19.00;77.50;;;;;;4936961;29;20035;-67
2023/10/23 12:22:51;;;;;;;6.32;1.33;;;18.80;78.00;;;;;;4953832;28;20039;-66
2023/10/23 12:25:18;;;;;;;6.72;2.03;;;18.80;78.40;;;;;;4957698;28;20548;-66
2023/10/23 12:27:46;;;;;;;6.60;1.70;;;18.80;78.50;;;;;;4948150;28;21640;-66
2023/10/23 12:30:17;;;;;;;6.15;1.05;;;18.70;78.70;;;;;;4960267;28;20075;-67
2023/10/23 12:32:44;;;;;;;9.13;1.55;;;18.70;79.00;;;;;;4938762;28;20456;-66
2023/10/23 12:35:13;;;;;;;4.15;1.10;;;18.70;79.30;;;;;;4952834;28;20031;-66
2023/10/23 12:37:40;;;;;;;5.68;1.13;;;18.70;79.20;;;;;;4951221;28;20039;-66
2023/10/23 12:40:10;;;;;;;4.82;1.35;;;18.70;79.30;;;;;;4951769;28;20027;-66
2023/10/23 12:42:39;;;;;;;6.25;1.20;;;18.70;79.40;;;;;;4952459;28;20045;-68
2023/10/23 12:45:08;;;;;;;9.02;1.60;;;18.60;79.60;;;;;;4956472;28;20027;-70
2023/10/23 12:47:36;;;;;;;5.57;1.27;;;18.50;79.90;;;;;;4950379;28;20027;-66
2023/10/23 12:50:04;;;;;;;6.80;1.23;;;18.40;80.60;;;;;;4951613;28;20039;-66
2023/10/23 12:52:32;;;;;;;5.80;1.23;;;18.30;80.90;;;;;;4947540;28;20046;-66
2023/10/23 12:55:00;;;;;;;4.63;1.30;;;18.20;81.30;;;;;;4947857;28;20897;-69